createdAt,value
2022-08-29T00:01:01.074Z,2.63
2022-08-29T00:02:03.735Z,2.25
2022-08-29T00:03:08.464Z,2.15
2022-08-29T00:04:11.035Z,2.40
2022-08-29T00:05:13.634Z,2.20
2022-08-29T00:06:16.200Z,2.22
2022-08-29T00:07:18.685Z,2.30
2022-08-29T00:08:21.288Z,2.05
2022-08-29T00:09:23.437Z,2.33
2022-08-29T00:10:26.568Z,2.90
2022-08-29T00:11:30.075Z,2.38
2022-08-29T00:12:32.605Z,3.03
2022-08-29T00:13:35.366Z,2.15
2022-08-29T00:14:37.620Z,2.38
2022-08-29T00:15:44.915Z,2.33
2022-08-29T00:16:47.567Z,2.40
2022-08-29T00:17:50.855Z,2.20
2022-08-29T00:18:53.040Z,2.35
2022-08-29T00:19:55.282Z,2.42
2022-08-29T00:20:57.449Z,2.50
2022-08-29T00:21:59.709Z,2.72
2022-08-29T00:23:03.793Z,2.47
2022-08-29T00:24:06.054Z,2.70
2022-08-29T00:25:10.593Z,2.35
2022-08-29T00:26:13.044Z,1.90
2022-08-29T00:27:15.387Z,2.20
2022-08-29T00:28:17.753Z,2.70
2022-08-29T00:29:19.949Z,2.50
2022-08-29T00:30:23.281Z,2.58
2022-08-29T00:31:25.508Z,2.90
2022-08-29T00:32:34.851Z,2.15
2022-08-29T00:33:39.172Z,2.63
2022-08-29T00:34:41.618Z,2.55
2022-08-29T00:35:45.355Z,3.00
2022-08-29T00:36:49.263Z,2.78
2022-08-29T00:37:52.192Z,2.67
2022-08-29T00:38:54.414Z,2.50
2022-08-29T00:39:56.934Z,2.30
2022-08-29T00:40:59.168Z,2.53
2022-08-29T00:42:01.463Z,2.20
2022-08-29T00:43:04.968Z,2.17
2022-08-29T00:44:07.108Z,2.63
2022-08-29T00:45:11.336Z,2.58
2022-08-29T00:46:38.784Z,3.15
2022-08-29T00:47:50.124Z,2.90
2022-08-29T00:48:58.978Z,2.88
2022-08-29T00:50:04.368Z,2.00
2022-08-29T00:51:15.079Z,2.70
2022-08-29T00:52:34.068Z,2.13
2022-08-29T00:53:43.429Z,2.50
2022-08-29T00:54:51.073Z,2.65
2022-08-29T00:55:53.328Z,2.10
2022-08-29T00:56:56.791Z,2.28
2022-08-29T00:58:04.614Z,2.42
2022-08-29T00:59:20.141Z,2.58
2022-08-29T01:00:23.936Z,3.03
2022-08-29T01:01:26.539Z,2.60
2022-08-29T01:02:29.252Z,2.42
2022-08-29T01:03:34.178Z,2.65
2022-08-29T01:04:36.950Z,3.25
2022-08-29T01:05:39.244Z,2.17
2022-08-29T01:06:43.129Z,2.67
2022-08-29T01:07:47.291Z,2.33
2022-08-29T01:08:49.487Z,2.60
2022-08-29T01:09:59.752Z,2.50
2022-08-29T01:11:21.969Z,3.03
2022-08-29T01:12:27.406Z,2.40
2022-08-29T01:13:36.318Z,2.67
2022-08-29T01:14:40.134Z,2.80
2022-08-29T01:15:44.142Z,2.50
2022-08-29T01:16:48.339Z,2.58
2022-08-29T01:17:51.436Z,2.88
2022-08-29T01:19:00.352Z,2.65
2022-08-29T01:20:19.308Z,2.45
2022-08-29T01:21:37.665Z,3.05
2022-08-29T01:22:47.620Z,2.88
2022-08-29T01:24:17.301Z,2.47
2022-08-29T01:25:26.343Z,2.55
2022-08-29T01:26:30.389Z,2.40
2022-08-29T01:27:37.238Z,2.60
2022-08-29T01:28:44.199Z,2.80
2022-08-29T01:29:46.872Z,2.60
2022-08-29T01:31:03.024Z,2.40
2022-08-29T01:32:05.822Z,2.13
2022-08-29T01:33:08.103Z,2.53
2022-08-29T01:34:14.308Z,3.97
2022-08-29T01:35:16.541Z,2.78
2022-08-29T01:36:23.463Z,2.47
2022-08-29T01:37:31.295Z,3.22
2022-08-29T01:38:34.346Z,3.10
2022-08-29T01:39:39.261Z,2.65
2022-08-29T01:40:41.511Z,2.15
2022-08-29T01:41:43.948Z,2.47
2022-08-29T01:42:46.474Z,2.60
2022-08-29T01:43:52.911Z,2.67
2022-08-29T01:44:57.931Z,2.42
2022-08-29T01:46:00.091Z,2.60
2022-08-29T01:47:03.584Z,2.65
2022-08-29T01:48:05.827Z,2.97
2022-08-29T01:49:11.051Z,2.90
2022-08-29T01:50:15.097Z,2.97
2022-08-29T01:51:18.047Z,3.05
2022-08-29T01:52:21.097Z,2.40
2022-08-29T01:53:23.567Z,2.58
2022-08-29T01:54:25.813Z,2.33
2022-08-29T01:55:28.091Z,2.50
2022-08-29T01:56:32.953Z,2.40
2022-08-29T01:57:37.731Z,2.75
2022-08-29T01:58:41.095Z,2.55
2022-08-29T01:59:44.102Z,2.78
2022-08-29T02:00:47.131Z,2.58
2022-08-29T02:01:58.943Z,2.78
2022-08-29T02:03:02.079Z,2.95
2022-08-29T02:04:06.534Z,2.97
2022-08-29T02:05:09.659Z,2.88
2022-08-29T02:06:12.954Z,2.67
2022-08-29T02:07:19.943Z,3.33
2022-08-29T02:08:22.097Z,2.25
2022-08-29T02:09:25.811Z,3.33
2022-08-29T02:10:28.546Z,2.40
2022-08-29T02:11:31.434Z,2.42
2022-08-29T02:12:34.392Z,2.38
2022-08-29T02:13:38.579Z,2.60
2022-08-29T02:14:41.095Z,2.63
2022-08-29T02:15:43.364Z,2.67
2022-08-29T02:16:45.619Z,2.30
2022-08-29T02:17:48.473Z,2.78
2022-08-29T02:18:51.184Z,2.78
2022-08-29T02:19:53.511Z,2.80
2022-08-29T02:20:55.845Z,3.00
2022-08-29T02:21:58.696Z,2.38
2022-08-29T02:23:01.021Z,3.15
2022-08-29T02:24:24.009Z,2.38
2022-08-29T02:25:41.956Z,3.42
2022-08-29T02:26:44.917Z,2.45
2022-08-29T02:27:47.101Z,2.40
2022-08-29T02:28:53.480Z,3.33
2022-08-29T02:29:55.631Z,2.17
2022-08-29T02:30:58.382Z,2.78
2022-08-29T02:32:01.031Z,2.30
2022-08-29T02:33:04.975Z,2.70
2022-08-29T02:34:09.591Z,2.63
2022-08-29T02:35:14.633Z,2.85
2022-08-29T02:36:19.803Z,2.30
2022-08-29T02:37:21.972Z,2.67
2022-08-29T02:38:25.063Z,2.33
2022-08-29T02:39:27.245Z,2.60
2022-08-29T02:40:31.680Z,3.47
2022-08-29T02:41:34.476Z,2.08
2022-08-29T02:42:36.666Z,2.30
2022-08-29T02:43:38.912Z,2.40
2022-08-29T02:44:41.086Z,2.40
2022-08-29T02:45:43.882Z,2.45
2022-08-29T02:46:46.784Z,2.60
2022-08-29T02:47:49.172Z,2.90
2022-08-29T02:49:00.994Z,2.03
2022-08-29T02:50:09.888Z,2.72
2022-08-29T02:51:22.995Z,2.78
2022-08-29T02:52:25.205Z,2.88
2022-08-29T02:53:29.312Z,2.20
2022-08-29T02:54:31.488Z,2.95
2022-08-29T02:55:33.878Z,2.88
2022-08-29T02:56:36.726Z,2.95
2022-08-29T02:57:38.890Z,3.85
2022-08-29T02:58:42.068Z,3.30
2022-08-29T02:59:44.195Z,2.80
2022-08-29T03:00:46.507Z,2.78
2022-08-29T03:01:48.726Z,3.83
2022-08-29T03:02:51.513Z,3.15
2022-08-29T03:03:54.283Z,3.40
2022-08-29T03:04:56.868Z,3.30
2022-08-29T03:05:59.200Z,3.17
2022-08-29T03:07:01.428Z,2.60
2022-08-29T03:08:07.186Z,4.07
2022-08-29T03:09:09.436Z,3.47
2022-08-29T03:10:11.576Z,3.00
2022-08-29T03:11:14.048Z,2.75
2022-08-29T03:12:17.540Z,2.60
2022-08-29T03:13:20.198Z,2.70
2022-08-29T03:14:24.028Z,2.65
2022-08-29T03:15:26.714Z,3.08
2022-08-29T03:16:29.059Z,2.88
2022-08-29T03:17:31.337Z,2.90
2022-08-29T03:18:33.534Z,2.63
2022-08-29T03:19:37.233Z,2.70
2022-08-29T03:20:39.727Z,2.60
2022-08-29T03:21:43.600Z,2.83
2022-08-29T03:22:46.720Z,2.72
2022-08-29T03:23:50.555Z,3.38
2022-08-29T03:24:52.831Z,2.92
2022-08-29T03:25:56.076Z,2.78
2022-08-29T03:26:58.779Z,3.13
2022-08-29T03:28:01.337Z,2.97
2022-08-29T03:29:04.535Z,2.92
2022-08-29T03:30:10.820Z,2.70
2022-08-29T03:31:13.274Z,3.10
2022-08-29T03:32:15.667Z,3.40
2022-08-29T03:33:18.047Z,3.28
2022-08-29T03:34:21.407Z,2.65
2022-08-29T03:35:24.191Z,3.63
2022-08-29T03:36:27.014Z,3.10
2022-08-29T03:37:29.364Z,3.13
2022-08-29T03:38:31.620Z,2.75
2022-08-29T03:39:36.022Z,3.35
2022-08-29T03:40:41.185Z,4.35
2022-08-29T03:41:43.499Z,3.25
2022-08-29T03:42:45.880Z,4.03
2022-08-29T03:43:48.147Z,3.78
2022-08-29T03:44:50.345Z,3.55
2022-08-29T03:45:52.940Z,2.90
2022-08-29T03:46:55.204Z,3.55
2022-08-29T03:47:57.446Z,5.45
2022-08-29T03:48:59.772Z,3.10
2022-08-29T03:50:03.018Z,3.83
2022-08-29T03:51:05.365Z,3.55
2022-08-29T03:52:09.559Z,3.95
2022-08-29T03:53:11.812Z,3.30
2022-08-29T03:54:13.988Z,2.80
2022-08-29T03:55:16.627Z,3.30
2022-08-29T03:56:19.215Z,3.28
2022-08-29T03:57:21.477Z,3.75
2022-08-29T03:58:23.815Z,3.33
2022-08-29T03:59:27.324Z,3.55
2022-08-29T04:00:29.595Z,2.90
2022-08-29T04:01:32.014Z,2.70
2022-08-29T04:02:34.352Z,3.22
2022-08-29T04:03:36.634Z,3.20
2022-08-29T04:04:57.714Z,3.50
2022-08-29T04:07:02.843Z,2.58
2022-08-29T04:08:05.355Z,3.20
2022-08-29T04:09:07.546Z,3.42
2022-08-29T04:10:11.589Z,2.72
2022-08-29T04:11:14.833Z,3.28
2022-08-29T04:12:17.561Z,2.80
2022-08-29T04:13:19.741Z,3.10
2022-08-29T04:14:22.239Z,3.25
2022-08-29T04:15:27.645Z,3.28
2022-08-29T04:16:30.819Z,3.20
2022-08-29T04:17:34.198Z,3.20
2022-08-29T04:18:36.470Z,3.22
2022-08-29T04:19:39.035Z,3.22
2022-08-29T04:20:44.961Z,3.17
2022-08-29T04:21:48.812Z,3.42
2022-08-29T04:22:51.950Z,3.67
2022-08-29T04:23:54.161Z,3.80
2022-08-29T04:24:56.352Z,3.47
2022-08-29T04:26:12.737Z,3.25
2022-08-29T04:27:20.772Z,3.60
2022-08-29T04:28:23.752Z,3.80
2022-08-29T04:29:26.056Z,4.68
2022-08-29T04:30:28.596Z,3.42
2022-08-29T04:31:30.809Z,3.22
2022-08-29T04:32:33.210Z,3.05
2022-08-29T04:33:35.367Z,3.40
2022-08-29T04:34:37.527Z,3.58
2022-08-29T04:35:40.723Z,3.72
2022-08-29T04:36:45.364Z,3.47
2022-08-29T04:37:48.061Z,3.67
2022-08-29T04:38:50.560Z,3.95
2022-08-29T04:39:52.767Z,3.92
2022-08-29T04:40:54.922Z,3.80
2022-08-29T04:41:57.080Z,3.20
2022-08-29T04:42:59.526Z,4.20
2022-08-29T04:44:02.438Z,4.47
2022-08-29T04:45:07.406Z,3.42
2022-08-29T04:46:23.418Z,3.75
2022-08-29T04:47:26.486Z,3.65
2022-08-29T04:48:29.302Z,3.10
2022-08-29T04:49:31.902Z,3.70
2022-08-29T04:50:34.112Z,3.30
2022-08-29T04:51:36.755Z,3.92
2022-08-29T04:52:39.745Z,4.05
2022-08-29T04:53:42.755Z,4.22
2022-08-29T04:54:44.943Z,3.67
2022-08-29T04:55:59.258Z,3.50
2022-08-29T04:57:05.435Z,3.80
2022-08-29T04:58:10.249Z,3.95
2022-08-29T04:59:12.777Z,3.65
2022-08-29T05:00:17.954Z,3.95
2022-08-29T05:01:22.625Z,3.40
2022-08-29T05:02:26.167Z,3.60
2022-08-29T05:03:28.474Z,3.80
2022-08-29T05:04:30.650Z,3.45
2022-08-29T05:05:32.847Z,4.45
2022-08-29T05:06:34.981Z,3.97
2022-08-29T05:07:38.160Z,4.00
2022-08-29T05:08:42.808Z,4.65
2022-08-29T05:09:44.962Z,4.03
2022-08-29T05:10:47.751Z,4.25
2022-08-29T05:11:50.015Z,3.72
2022-08-29T05:12:52.194Z,3.42
2022-08-29T05:13:56.408Z,3.13
2022-08-29T05:14:58.688Z,3.30
2022-08-29T05:16:06.273Z,3.80
2022-08-29T05:17:08.482Z,3.75
2022-08-29T05:18:11.976Z,3.70
2022-08-29T05:19:16.131Z,2.95
2022-08-29T05:20:18.426Z,3.72
2022-08-29T05:21:31.918Z,3.15
2022-08-29T05:22:39.297Z,3.97
2022-08-29T05:23:41.546Z,3.35
2022-08-29T05:24:44.445Z,3.63
2022-08-29T05:25:55.560Z,3.85
2022-08-29T05:26:57.813Z,3.40
2022-08-29T05:27:59.974Z,3.90
2022-08-29T05:29:04.067Z,3.92
2022-08-29T05:30:11.056Z,5.10
2022-08-29T05:31:14.596Z,4.78
2022-08-29T05:32:18.843Z,3.80
2022-08-29T05:33:21.563Z,3.85
2022-08-29T05:34:34.666Z,3.30
2022-08-29T05:35:38.407Z,3.95
2022-08-29T05:36:40.597Z,3.72
2022-08-29T05:37:42.773Z,4.10
2022-08-29T05:38:44.960Z,3.85
2022-08-29T05:39:48.364Z,3.58
2022-08-29T05:40:50.591Z,3.45
2022-08-29T05:41:57.342Z,3.15
2022-08-29T05:42:59.515Z,3.80
2022-08-29T05:44:01.832Z,3.08
2022-08-29T05:45:07.647Z,4.15
2022-08-29T05:46:11.294Z,4.03
2022-08-29T05:47:16.419Z,5.07
2022-08-29T05:48:18.565Z,3.80
2022-08-29T05:49:21.530Z,3.90
2022-08-29T05:50:24.236Z,3.33
2022-08-29T05:51:26.436Z,3.83
2022-08-29T05:52:29.195Z,3.75
2022-08-29T05:53:31.474Z,3.75
2022-08-29T05:54:35.930Z,4.15
2022-08-29T05:55:42.237Z,3.60
2022-08-29T05:56:44.735Z,3.33
2022-08-29T05:57:49.982Z,3.55
2022-08-29T05:58:52.957Z,3.63
2022-08-29T05:59:55.205Z,4.25
2022-08-29T06:00:57.650Z,3.55
2022-08-29T06:02:01.479Z,3.67
2022-08-29T06:03:03.809Z,4.07
2022-08-29T06:04:06.336Z,3.42
2022-08-29T06:05:09.070Z,3.53
2022-08-29T06:06:12.838Z,3.35
2022-08-29T06:07:15.385Z,3.85
2022-08-29T06:08:18.153Z,3.33
2022-08-29T06:09:20.395Z,3.88
2022-08-29T06:10:22.666Z,3.55
2022-08-29T06:11:28.178Z,4.18
2022-08-29T06:12:30.347Z,3.60
2022-08-29T06:13:32.582Z,3.53
2022-08-29T06:14:35.778Z,3.47
2022-08-29T06:15:38.705Z,3.17
2022-08-29T06:16:41.042Z,4.50
2022-08-29T06:17:43.835Z,3.55
2022-08-29T06:18:47.131Z,3.80
2022-08-29T06:19:51.718Z,4.00
2022-08-29T06:20:53.848Z,3.63
2022-08-29T06:21:56.233Z,3.65
2022-08-29T06:22:58.610Z,4.90
2022-08-29T06:24:00.825Z,2.95
2022-08-29T06:25:16.522Z,3.70
2022-08-29T06:26:26.276Z,3.70
2022-08-29T06:27:28.601Z,3.15
2022-08-29T06:28:32.427Z,3.17
2022-08-29T06:29:43.136Z,3.00
2022-08-29T06:30:45.580Z,3.47
2022-08-29T06:31:47.836Z,2.88
2022-08-29T06:32:50.049Z,3.83
2022-08-29T06:33:54.287Z,3.70
2022-08-29T06:34:56.445Z,4.07
2022-08-29T06:35:58.691Z,4.20
2022-08-29T06:37:00.883Z,3.53
2022-08-29T06:38:03.030Z,3.55
2022-08-29T06:39:08.590Z,3.63
2022-08-29T06:40:11.303Z,3.75
2022-08-29T06:41:16.269Z,3.45
2022-08-29T06:42:23.072Z,4.13
2022-08-29T06:43:25.351Z,3.85
2022-08-29T06:44:30.978Z,3.72
2022-08-29T06:45:33.257Z,3.67
2022-08-29T06:46:46.042Z,3.17
2022-08-29T06:47:48.198Z,3.40
2022-08-29T06:48:51.346Z,4.43
2022-08-29T06:49:53.536Z,3.70
2022-08-29T06:50:55.796Z,4.30
2022-08-29T06:51:58.748Z,3.35
2022-08-29T06:53:14.756Z,3.67
2022-08-29T06:54:25.379Z,3.90
2022-08-29T06:55:30.424Z,3.92
2022-08-29T06:56:37.200Z,3.60
2022-08-29T06:57:45.455Z,3.58
2022-08-29T06:58:47.850Z,3.90
2022-08-29T06:59:50.106Z,3.45
2022-08-29T07:00:52.280Z,3.75
2022-08-29T07:01:57.392Z,3.92
2022-08-29T07:02:59.703Z,3.60
2022-08-29T07:04:03.198Z,4.95
2022-08-29T07:05:06.974Z,3.72
2022-08-29T07:06:10.154Z,3.78
2022-08-29T07:07:12.357Z,4.13
2022-08-29T07:08:14.525Z,3.15
2022-08-29T07:09:17.262Z,4.30
2022-08-29T07:10:22.582Z,3.88
2022-08-29T07:11:26.734Z,3.92
2022-08-29T07:12:28.960Z,4.22
2022-08-29T07:13:35.159Z,4.00
2022-08-29T07:14:37.719Z,4.00
2022-08-29T07:15:39.897Z,4.13
2022-08-29T07:16:42.238Z,3.88
2022-08-29T07:17:44.444Z,4.45
2022-08-29T07:18:47.424Z,3.83
2022-08-29T07:19:49.677Z,3.95
2022-08-29T07:20:52.565Z,3.38
2022-08-29T07:21:57.949Z,3.67
2022-08-29T07:23:00.514Z,3.20
2022-08-29T07:24:03.386Z,3.83
2022-08-29T07:25:06.412Z,3.60
2022-08-29T07:26:09.006Z,3.80
2022-08-29T07:27:12.750Z,4.10
2022-08-29T07:28:14.987Z,4.45
2022-08-29T07:29:20.981Z,4.53
2022-08-29T07:30:23.293Z,3.88
2022-08-29T07:31:25.581Z,3.80
2022-08-29T07:32:33.465Z,3.22
2022-08-29T07:33:36.043Z,3.45
2022-08-29T07:34:38.334Z,4.00
2022-08-29T07:35:40.785Z,4.28
2022-08-29T07:36:43.148Z,3.88
2022-08-29T07:37:50.664Z,3.60
2022-08-29T07:38:53.183Z,3.35
2022-08-29T07:39:55.477Z,4.47
2022-08-29T07:41:02.862Z,4.10
2022-08-29T07:42:05.270Z,3.70
2022-08-29T07:43:07.528Z,3.53
2022-08-29T07:44:10.557Z,3.28
2022-08-29T07:45:13.417Z,3.45
2022-08-29T07:46:18.315Z,3.67
2022-08-29T07:47:21.000Z,3.38
2022-08-29T07:48:25.391Z,3.75
2022-08-29T07:49:40.623Z,3.55
2022-08-29T07:50:43.528Z,3.83
2022-08-29T07:51:45.850Z,3.90
2022-08-29T07:52:48.481Z,4.38
2022-08-29T07:53:53.804Z,4.00
2022-08-29T07:54:56.654Z,3.70
2022-08-29T07:55:58.801Z,3.97
2022-08-29T07:57:01.057Z,3.95
2022-08-29T07:58:04.885Z,3.30
2022-08-29T07:59:07.317Z,3.80
2022-08-29T08:00:11.808Z,3.97
2022-08-29T08:01:16.851Z,4.00
2022-08-29T08:02:23.632Z,3.88
2022-08-29T08:03:27.130Z,3.65
2022-08-29T08:04:29.973Z,3.17
2022-08-29T08:05:32.330Z,4.07
2022-08-29T08:06:36.683Z,3.92
2022-08-29T08:07:40.274Z,4.05
2022-08-29T08:08:42.649Z,2.70
2022-08-29T08:09:45.091Z,2.72
2022-08-29T08:10:51.910Z,2.60
2022-08-29T08:11:54.462Z,3.85
2022-08-29T08:12:56.648Z,2.70
2022-08-29T08:13:58.994Z,3.22
2022-08-29T08:15:01.304Z,3.40
2022-08-29T08:16:10.078Z,2.20
2022-08-29T08:17:12.373Z,2.67
2022-08-29T08:18:14.793Z,2.45
2022-08-29T08:19:18.185Z,2.45
2022-08-29T08:20:20.516Z,2.55
2022-08-29T08:23:02.747Z,3.38
2022-08-29T08:24:05.263Z,2.40
2022-08-29T08:25:07.950Z,2.70
2022-08-29T08:26:11.997Z,3.08
2022-08-29T08:27:14.228Z,3.60
2022-08-29T08:28:18.738Z,2.45
2022-08-29T08:29:20.942Z,2.95
2022-08-29T08:30:23.165Z,3.30
2022-08-29T08:31:28.066Z,2.40
2022-08-29T08:32:32.365Z,2.55
2022-08-29T08:33:38.833Z,2.53
2022-08-29T08:34:41.017Z,2.90
2022-08-29T08:35:46.962Z,2.70
2022-08-29T08:36:50.442Z,2.33
2022-08-29T08:37:53.430Z,2.38
2022-08-29T08:38:57.136Z,2.47
2022-08-29T08:40:00.133Z,2.42
2022-08-29T08:41:27.454Z,2.80
2022-08-29T08:42:42.364Z,2.30
2022-08-29T08:43:54.027Z,1.98
2022-08-29T08:44:58.930Z,1.80
2022-08-29T08:46:01.247Z,1.85
2022-08-29T08:47:07.541Z,1.90
2022-08-29T08:48:23.370Z,1.92
2022-08-29T08:49:36.637Z,1.58
2022-08-29T08:51:23.581Z,2.15
2022-08-29T08:52:37.553Z,1.98
2022-08-29T08:53:44.812Z,1.85
2022-08-29T08:54:53.428Z,2.42
2022-08-29T08:55:59.793Z,2.10
2022-08-29T08:57:13.109Z,2.20
2022-08-29T08:58:34.610Z,2.15
2022-08-29T08:59:43.536Z,1.60
2022-08-29T09:00:51.378Z,2.00
2022-08-29T09:02:07.304Z,2.10
2022-08-29T09:03:43.973Z,2.33
2022-08-29T09:04:58.097Z,1.55
2022-08-29T09:06:22.424Z,1.58
2022-08-29T09:07:43.048Z,1.88
2022-08-29T09:09:15.441Z,1.48
2022-08-29T09:10:44.023Z,1.70
2022-08-29T09:12:23.777Z,1.73
2022-08-29T09:13:56.966Z,2.38
2022-08-29T09:15:02.176Z,1.83
2022-08-29T09:16:11.122Z,1.70
2022-08-29T09:17:30.633Z,1.98
2022-08-29T09:18:41.731Z,1.65
2022-08-29T09:19:46.373Z,1.77
2022-08-29T09:20:48.886Z,1.70
2022-08-29T09:21:55.249Z,1.52
2022-08-29T09:23:31.513Z,1.40
2022-08-29T09:24:46.685Z,1.65
2022-08-29T09:25:49.683Z,1.95
2022-08-29T09:26:51.924Z,1.55
2022-08-29T09:27:54.111Z,1.90
2022-08-29T09:28:57.185Z,1.92
2022-08-29T09:30:13.422Z,1.92
2022-08-29T09:31:24.927Z,2.13
2022-08-29T09:32:27.546Z,1.65
2022-08-29T09:33:44.595Z,1.85
2022-08-29T09:35:07.899Z,1.80
2022-08-29T09:36:15.283Z,1.92
2022-08-29T09:37:23.304Z,1.80
2022-08-29T09:38:28.111Z,1.85
2022-08-29T09:39:33.769Z,1.88
2022-08-29T09:40:55.745Z,1.75
2022-08-29T09:42:14.307Z,1.83
2022-08-29T09:43:21.504Z,1.75
2022-08-29T09:44:35.704Z,1.85
2022-08-29T09:45:38.139Z,1.98
2022-08-29T09:46:40.371Z,1.73
2022-08-29T09:47:42.609Z,2.05
2022-08-29T09:48:46.430Z,1.88
2022-08-29T09:50:07.191Z,2.17
2022-08-29T09:52:23.476Z,1.65
2022-08-29T09:53:26.292Z,2.13
2022-08-29T09:54:32.862Z,1.67
2022-08-29T09:55:42.558Z,1.55
2022-08-29T09:57:10.750Z,2.35
2022-08-29T09:58:13.683Z,1.42
2022-08-29T09:59:34.691Z,1.95
2022-08-29T10:00:41.037Z,1.83
2022-08-29T10:01:43.644Z,1.40
2022-08-29T10:02:49.087Z,1.55
2022-08-29T10:04:02.426Z,1.65
2022-08-29T10:05:13.180Z,1.30
2022-08-29T10:06:22.601Z,1.50
2022-08-29T10:07:30.507Z,1.70
2022-08-29T10:08:38.598Z,1.50
2022-08-29T10:09:40.994Z,1.55
2022-08-29T10:10:54.275Z,1.20
2022-08-29T10:12:07.699Z,2.15
2022-08-29T10:13:34.401Z,1.55
2022-08-29T10:14:54.555Z,1.40
2022-08-29T10:16:18.829Z,1.33
2022-08-29T10:17:54.494Z,1.73
2022-08-29T10:19:33.145Z,1.50
2022-08-29T10:21:05.140Z,1.48
2022-08-29T10:22:39.425Z,1.33
2022-08-29T10:23:41.592Z,1.77
2022-08-29T10:24:53.429Z,1.80
2022-08-29T10:26:00.935Z,1.20
2022-08-29T10:27:18.024Z,1.40
2022-08-29T10:28:31.775Z,1.30
2022-08-29T10:29:40.011Z,1.92
2022-08-29T10:30:45.190Z,1.00
2022-08-29T10:32:13.286Z,1.85
2022-08-29T10:33:18.380Z,1.38
2022-08-29T10:34:44.074Z,1.17
2022-08-29T10:35:55.929Z,1.85
2022-08-29T10:37:04.410Z,1.23
2022-08-29T10:38:22.797Z,1.50
2022-08-29T10:39:50.623Z,1.48
2022-08-29T10:41:26.738Z,1.92
2022-08-29T10:42:34.262Z,1.23
2022-08-29T10:43:47.389Z,1.20
2022-08-29T10:45:16.806Z,1.58
2022-08-29T10:46:44.119Z,1.38
2022-08-29T10:48:11.084Z,1.60
2022-08-29T10:49:48.293Z,1.42
2022-08-29T10:51:21.604Z,1.42
2022-08-29T10:52:39.686Z,1.33
2022-08-29T10:53:47.162Z,1.60
2022-08-29T10:55:16.837Z,1.35
2022-08-29T10:56:30.630Z,1.00
2022-08-29T10:57:58.706Z,1.20
2022-08-29T10:59:21.101Z,1.20
2022-08-29T11:00:53.086Z,1.40
2022-08-29T11:02:22.932Z,1.40
2022-08-29T11:03:41.950Z,1.00
2022-08-29T11:04:51.769Z,1.08
2022-08-29T11:06:01.212Z,1.20
2022-08-29T11:07:16.179Z,1.63
2022-08-29T11:08:26.631Z,1.15
2022-08-29T11:09:35.073Z,1.35
2022-08-29T11:10:43.477Z,1.35
2022-08-29T11:11:59.192Z,1.30
2022-08-29T11:13:10.203Z,1.02
2022-08-29T11:14:31.845Z,1.40
2022-08-29T11:15:48.523Z,1.30
2022-08-29T11:16:52.749Z,1.50
2022-08-29T11:18:05.614Z,1.40
2022-08-29T11:19:22.625Z,1.67
2022-08-29T11:20:31.906Z,1.00
2022-08-29T11:21:47.076Z,1.00
2022-08-29T11:23:18.351Z,1.10
2022-08-29T11:24:22.975Z,1.55
2022-08-29T11:25:27.563Z,0.95
2022-08-29T11:26:45.512Z,1.52
2022-08-29T11:28:06.443Z,1.15
2022-08-29T11:29:24.642Z,1.17
2022-08-29T11:30:48.421Z,1.23
2022-08-29T11:32:04.278Z,1.77
2022-08-29T11:33:35.799Z,1.23
2022-08-29T11:35:03.806Z,1.20
2022-08-29T11:36:29.243Z,1.30
2022-08-29T11:37:59.690Z,1.00
2022-08-29T11:39:23.412Z,1.35
2022-08-29T11:42:50.663Z,1.10
2022-08-29T11:43:59.078Z,1.40
2022-08-29T11:45:03.738Z,1.42
2022-08-29T11:46:08.061Z,1.20
2022-08-29T11:47:41.069Z,0.90
2022-08-29T11:48:49.137Z,1.17
2022-08-29T11:49:52.188Z,1.08
2022-08-29T11:52:12.725Z,1.20
2022-08-29T11:53:20.877Z,1.15
2022-08-29T11:54:28.818Z,1.05
2022-08-29T11:55:41.308Z,0.90
2022-08-29T11:56:43.553Z,1.40
2022-08-29T11:57:49.818Z,1.30
2022-08-29T11:58:55.851Z,1.10
2022-08-29T12:00:00.257Z,1.13
2022-08-29T12:01:02.905Z,0.90
2022-08-29T12:02:08.728Z,1.23
2022-08-29T12:03:33.081Z,1.25
2022-08-29T12:05:16.942Z,1.23
2022-08-29T12:06:26.613Z,1.30
2022-08-29T12:07:37.632Z,1.20
2022-08-29T12:08:46.770Z,0.80
2022-08-29T12:09:56.283Z,1.10
2022-08-29T12:10:59.779Z,1.23
2022-08-29T12:12:05.006Z,1.30
2022-08-29T12:13:07.382Z,0.90
2022-08-29T12:14:09.672Z,0.82
2022-08-29T12:15:27.262Z,0.93
2022-08-29T12:16:46.463Z,0.60
2022-08-29T12:18:02.111Z,0.90
2022-08-29T12:19:05.496Z,0.85
2022-08-29T12:20:08.045Z,1.20
2022-08-29T12:21:34.075Z,1.10
2022-08-29T12:22:51.487Z,0.70
2022-08-29T12:23:53.811Z,1.10
2022-08-29T12:24:57.493Z,1.13
2022-08-29T12:26:21.575Z,0.85
2022-08-29T12:28:05.898Z,1.30
2022-08-29T12:29:18.133Z,0.82
2022-08-29T12:30:22.347Z,1.08
2022-08-29T12:32:18.001Z,0.98
2022-08-29T12:34:02.117Z,1.05
2022-08-29T12:35:17.251Z,0.90
2022-08-29T12:36:37.870Z,1.08
2022-08-29T12:37:55.157Z,1.00
2022-08-29T12:39:03.277Z,1.17
2022-08-29T12:40:31.083Z,1.15
2022-08-29T12:41:42.581Z,0.90
2022-08-29T12:43:11.037Z,0.93
2022-08-29T12:44:16.717Z,1.55
2022-08-29T12:45:27.085Z,1.00
2022-08-29T12:46:40.435Z,1.08
2022-08-29T12:47:51.490Z,0.90
2022-08-29T12:49:13.750Z,1.80
2022-08-29T12:50:26.958Z,1.10
2022-08-29T12:51:40.482Z,1.58
2022-08-29T12:52:42.757Z,1.30
2022-08-29T12:53:49.784Z,1.00
2022-08-29T12:54:56.136Z,0.93
2022-08-29T12:56:03.862Z,1.05
2022-08-29T12:57:07.942Z,0.85
2022-08-29T12:58:12.566Z,1.23
2022-08-29T12:59:20.240Z,1.15
2022-08-29T13:00:29.707Z,1.00
2022-08-29T13:01:37.908Z,0.82
2022-08-29T13:02:40.494Z,1.00
2022-08-29T13:03:42.739Z,0.98
2022-08-29T13:04:45.075Z,1.10
2022-08-29T13:05:47.824Z,1.08
2022-08-29T13:07:02.003Z,1.13
2022-08-29T13:08:10.980Z,1.00
2022-08-29T13:09:28.884Z,1.85
2022-08-29T13:10:31.172Z,1.00
2022-08-29T13:11:33.932Z,0.70
2022-08-29T13:12:36.766Z,0.80
2022-08-29T13:13:39.895Z,1.20
2022-08-29T13:14:57.794Z,1.05
2022-08-29T13:16:02.213Z,1.00
2022-08-29T13:17:13.416Z,0.90
2022-08-29T13:18:16.528Z,1.33
2022-08-29T13:19:22.119Z,1.17
2022-08-29T13:20:40.906Z,1.08
2022-08-29T13:21:43.454Z,1.10
2022-08-29T13:22:45.606Z,1.25
2022-08-29T13:23:58.860Z,1.10
2022-08-29T13:25:05.623Z,0.90
2022-08-29T13:26:10.876Z,1.00
2022-08-29T13:27:22.031Z,1.10
2022-08-29T13:28:35.951Z,1.00
2022-08-29T13:29:42.337Z,1.45
2022-08-29T13:30:48.801Z,0.95
2022-08-29T13:32:23.918Z,2.03
2022-08-29T13:33:35.057Z,0.90
2022-08-29T13:34:38.017Z,1.00
2022-08-29T13:35:40.296Z,1.20
2022-08-29T13:37:02.261Z,1.00
2022-08-29T13:38:30.732Z,1.33
2022-08-29T13:39:43.531Z,1.23
2022-08-29T13:40:53.604Z,1.10
2022-08-29T13:42:01.637Z,0.88
2022-08-29T13:43:06.070Z,1.30
2022-08-29T13:44:20.630Z,0.95
2022-08-29T13:45:24.622Z,1.08
2022-08-29T13:46:30.640Z,1.10
2022-08-29T13:47:41.116Z,0.98
2022-08-29T13:48:44.309Z,1.13
2022-08-29T13:49:47.223Z,0.95
2022-08-29T13:50:49.415Z,1.00
2022-08-29T13:51:52.102Z,1.42
2022-08-29T13:52:55.758Z,0.90
2022-08-29T13:53:58.167Z,0.90
2022-08-29T13:55:00.457Z,0.85
2022-08-29T13:56:03.260Z,0.70
2022-08-29T13:57:08.063Z,1.00
2022-08-29T13:58:12.726Z,0.80
2022-08-29T13:59:19.109Z,1.02
2022-08-29T14:00:32.480Z,0.85
2022-08-29T14:03:01.406Z,1.08
2022-08-29T14:04:27.393Z,1.05
2022-08-29T14:05:26.314Z,1.15
2022-08-29T14:06:28.554Z,1.52
2022-08-29T14:07:32.875Z,1.27
2022-08-29T14:08:35.223Z,0.82
2022-08-29T14:09:40.686Z,0.88
2022-08-29T14:10:42.923Z,0.93
2022-08-29T14:11:45.629Z,1.15
2022-08-29T14:12:47.861Z,1.30
2022-08-29T14:13:50.087Z,0.98
2022-08-29T14:14:52.636Z,0.90
2022-08-29T14:15:54.920Z,1.15
2022-08-29T14:16:57.712Z,1.05
2022-08-29T14:18:00.166Z,0.88
2022-08-29T14:19:02.525Z,0.98
2022-08-29T14:20:06.866Z,1.10
2022-08-29T14:21:09.421Z,1.10
2022-08-29T14:22:11.761Z,1.50
2022-08-29T14:23:14.132Z,1.17
2022-08-29T14:24:16.421Z,1.83
2022-08-29T14:25:20.120Z,1.02
2022-08-29T14:26:22.383Z,0.90
2022-08-29T14:27:24.723Z,1.33
2022-08-29T14:28:26.922Z,0.93
2022-08-29T14:29:31.025Z,0.88
2022-08-29T14:30:33.432Z,1.40
2022-08-29T14:31:35.826Z,1.25
2022-08-29T14:32:38.743Z,1.50
2022-08-29T14:33:40.920Z,1.00
2022-08-29T14:34:45.476Z,1.33
2022-08-29T14:35:53.568Z,1.10
2022-08-29T14:36:55.757Z,1.35
2022-08-29T14:37:58.579Z,1.08
2022-08-29T14:39:01.578Z,1.05
2022-08-29T14:40:06.419Z,0.80
2022-08-29T14:41:08.762Z,1.10
2022-08-29T14:42:10.947Z,1.10
2022-08-29T14:43:13.702Z,1.17
2022-08-29T14:44:20.193Z,1.08
2022-08-29T14:45:22.882Z,1.00
2022-08-29T14:46:26.785Z,0.95
2022-08-29T14:47:29.086Z,1.05
2022-08-29T14:48:31.375Z,1.17
2022-08-29T14:49:33.637Z,1.20
2022-08-29T14:50:35.928Z,1.00
2022-08-29T14:51:38.147Z,1.05
2022-08-29T14:52:41.312Z,0.90
2022-08-29T14:53:51.741Z,1.00
2022-08-29T14:54:56.945Z,1.13
2022-08-29T14:56:00.726Z,0.90
2022-08-29T14:57:03.003Z,1.10
2022-08-29T14:58:05.269Z,0.93
2022-08-29T14:59:07.510Z,0.93
2022-08-29T15:00:16.715Z,1.02
2022-08-29T15:01:19.154Z,0.90
2022-08-29T15:02:21.803Z,1.30